National Weather Service Raw Text Product

Displaying AFOS PIL: TAFFOD Received: 2018-12-06 11:29 UTC


310 
FTUS43 KDMX 061129
TAFFOD
TAF
KFOD 061129Z 0612/0712 34008KT P6SM SCT030
     FM070300 VRB03KT P6SM FEW250=